sensor_id;sensor_type;location;lat;lon;timestamp;pressure;altitude;pressure_sealevel;temperature;humidity
39309;BME280;26019;47.510;19.122;2023-02-10T00:02:49;102360.59;;;-5.49;100.00
39309;BME280;26019;47.510;19.122;2023-02-10T00:12:51;102364.56;;;-5.42;100.00
39309;BME280;26019;47.510;19.122;2023-02-10T00:22:53;102360.38;;;-5.70;100.00
39309;BME280;26019;47.510;19.122;2023-02-10T00:32:56;102364.91;;;-5.57;100.00
39309;BME280;26019;47.510;19.122;2023-02-10T00:42:58;102368.06;;;-5.68;100.00
39309;BME280;26019;47.510;19.122;2023-02-10T00:53:00;102373.66;;;-5.62;100.00
39309;BME280;26019;47.510;19.122;2023-02-10T01:03:02;102364.28;;;-5.91;100.00
39309;BME280;26019;47.510;19.122;2023-02-10T01:13:07;102354.59;;;-6.05;100.00
39309;BME280;26019;47.510;19.122;2023-02-10T01:23:09;102342.38;;;-5.92;100.00
39309;BME280;26019;47.510;19.122;2023-02-10T01:33:12;102340.84;;;-6.18;100.00
39309;BME280;26019;47.510;19.122;2023-02-10T01:43:16;102344.09;;;-6.19;100.00
39309;BME280;26019;47.510;19.122;2023-02-10T01:53:21;102331.94;;;-6.05;100.00
39309;BME280;26019;47.510;19.122;2023-02-10T02:03:26;102341.28;;;-6.22;100.00
39309;BME280;26019;47.510;19.122;2023-02-10T02:44:40;102329.22;;;-6.61;100.00
39309;BME280;26019;47.510;19.122;2023-02-10T02:54:47;102330.84;;;-6.70;100.00
39309;BME280;26019;47.510;19.122;2023-02-10T03:04:53;102331.00;;;-6.69;100.00
39309;BME280;26019;47.510;19.122;2023-02-10T03:14:55;102330.41;;;-6.66;100.00
39309;BME280;26019;47.510;19.122;2023-02-10T03:24:56;102331.72;;;-6.61;100.00
39309;BME280;26019;47.510;19.122;2023-02-10T03:34:58;102325.81;;;-7.14;100.00
39309;BME280;26019;47.510;19.122;2023-02-10T03:45:00;102322.56;;;-6.87;100.00
39309;BME280;26019;47.510;19.122;2023-02-10T03:55:02;102314.00;;;-7.07;100.00
39309;BME280;26019;47.510;19.122;2023-02-10T04:05:04;102292.53;;;-7.12;100.00
39309;BME280;26019;47.510;19.122;2023-02-10T04:15:07;102293.88;;;-7.15;100.00
39309;BME280;26019;47.510;19.122;2023-02-10T04:25:10;102294.19;;;-7.03;100.00
39309;BME280;26019;47.510;19.122;2023-02-10T04:35:12;102302.28;;;-7.15;100.00
39309;BME280;26019;47.510;19.122;2023-02-10T04:45:14;102316.19;;;-7.01;100.00
39309;BME280;26019;47.510;19.122;2023-02-10T04:55:17;102336.19;;;-6.94;100.00
39309;BME280;26019;47.510;19.122;2023-02-10T05:05:20;102351.56;;;-6.91;100.00
39309;BME280;26019;47.510;19.122;2023-02-10T05:15:22;102357.47;;;-6.99;100.00
39309;BME280;26019;47.510;19.122;2023-02-10T05:25:25;102350.81;;;-6.98;100.00
39309;BME280;26019;47.510;19.122;2023-02-10T05:35:28;102348.06;;;-7.35;100.00
39309;BME280;26019;47.510;19.122;2023-02-10T05:45:31;102357.06;;;-7.46;100.00
39309;BME280;26019;47.510;19.122;2023-02-10T05:55:35;102360.00;;;-7.50;100.00
39309;BME280;26019;47.510;19.122;2023-02-10T06:05:38;102356.53;;;-7.26;100.00
39309;BME280;26019;47.510;19.122;2023-02-10T06:15:51;102354.63;;;-7.20;100.00
39309;BME280;26019;47.510;19.122;2023-02-10T06:25:53;102374.94;;;-6.92;100.00
39309;BME280;26019;47.510;19.122;2023-02-10T06:35:56;102377.16;;;-6.68;100.00
39309;BME280;26019;47.510;19.122;2023-02-10T06:46:00;102418.13;;;-6.17;100.00
39309;BME280;26019;47.510;19.122;2023-02-10T06:56:05;102419.03;;;-6.07;100.00
39309;BME280;26019;47.510;19.122;2023-02-10T07:06:06;102400.53;;;-5.71;100.00
39309;BME280;26019;47.510;19.122;2023-02-10T07:16:08;102419.44;;;-5.20;100.00
39309;BME280;26019;47.510;19.122;2023-02-10T07:26:13;102419.41;;;-4.84;100.00
39309;BME280;26019;47.510;19.122;2023-02-10T07:36:19;102404.53;;;-4.61;100.00
39309;BME280;26019;47.510;19.122;2023-02-10T07:46:23;102403.28;;;-4.37;100.00
39309;BME280;26019;47.510;19.122;2023-02-10T07:56:25;102414.34;;;-4.26;100.00
39309;BME280;26019;47.510;19.122;2023-02-10T08:06:29;102424.91;;;-3.42;100.00
39309;BME280;26019;47.510;19.122;2023-02-10T08:16:31;102434.69;;;-2.53;100.00
39309;BME280;26019;47.510;19.122;2023-02-10T08:26:33;102430.22;;;-1.38;99.43
39309;BME280;26019;47.510;19.122;2023-02-10T08:36:39;102431.34;;;-0.54;86.75
39309;BME280;26019;47.510;19.122;2023-02-10T08:46:40;102431.16;;;-0.21;80.92
39309;BME280;26019;47.510;19.122;2023-02-10T08:56:42;102435.28;;;0.38;74.08
39309;BME280;26019;47.510;19.122;2023-02-10T09:06:44;102431.47;;;0.82;70.50
39309;BME280;26019;47.510;19.122;2023-02-10T09:16:46;102422.72;;;1.96;64.59
39309;BME280;26019;47.510;19.122;2023-02-10T09:26:48;102431.44;;;2.00;61.19
39309;BME280;26019;47.510;19.122;2023-02-10T09:36:50;102413.91;;;2.46;58.74
39309;BME280;26019;47.510;19.122;2023-02-10T09:47:03;102423.22;;;3.33;54.13
39309;BME280;26019;47.510;19.122;2023-02-10T09:57:13;102422.41;;;4.27;50.85
39309;BME280;26019;47.510;19.122;2023-02-10T10:07:26;102412.50;;;4.83;48.25
39309;BME280;26019;47.510;19.122;2023-02-10T10:38:19;102398.50;;;5.63;42.33
39309;BME280;26019;47.510;19.122;2023-02-10T10:48:25;102382.66;;;6.08;41.63
39309;BME280;26019;47.510;19.122;2023-02-10T10:58:39;102366.06;;;5.46;42.11
39309;BME280;26019;47.510;19.122;2023-02-10T11:18:55;102336.03;;;8.11;36.16
39309;BME280;26019;47.510;19.122;2023-02-10T11:29:08;102353.69;;;10.12;32.56
39309;BME280;26019;47.510;19.122;2023-02-10T11:39:30;102332.97;;;9.51;32.59
39309;BME280;26019;47.510;19.122;2023-02-10T11:49:35;102329.28;;;8.39;33.40
39309;BME280;26019;47.510;19.122;2023-02-10T12:00:02;102304.03;;;10.22;31.62
39309;BME280;26019;47.510;19.122;2023-02-10T12:41:33;102246.34;;;13.28;27.66
39309;BME280;26019;47.510;19.122;2023-02-10T13:01:55;102244.81;;;12.28;28.31
39309;BME280;26019;47.510;19.122;2023-02-10T13:12:23;102266.28;;;13.99;26.00
39309;BME280;26019;47.510;19.122;2023-02-10T13:43:56;102233.34;;;12.65;27.39
39309;BME280;26019;47.510;19.122;2023-02-10T13:53:59;102230.72;;;14.89;24.71
39309;BME280;26019;47.510;19.122;2023-02-10T14:14:24;102230.59;;;10.83;29.33
39309;BME280;26019;47.510;19.122;2023-02-10T14:24:29;102231.56;;;7.24;36.06
39309;BME280;26019;47.510;19.122;2023-02-10T14:35:02;102235.19;;;6.42;37.42
39309;BME280;26019;47.510;19.122;2023-02-10T14:45:27;102220.72;;;4.54;42.37
39309;BME280;26019;47.510;19.122;2023-02-10T14:55:37;102234.44;;;6.24;39.48
39309;BME280;26019;47.510;19.122;2023-02-10T15:05:50;102224.72;;;3.98;44.42
39309;BME280;26019;47.510;19.122;2023-02-10T15:15:55;102234.09;;;3.33;46.54
39309;BME280;26019;47.510;19.122;2023-02-10T15:26:20;102237.81;;;3.23;48.19
39309;BME280;26019;47.510;19.122;2023-02-10T15:36:35;102229.50;;;2.95;49.00
39309;BME280;26019;47.510;19.122;2023-02-10T15:46:46;102236.41;;;2.66;50.20
39309;BME280;26019;47.510;19.122;2023-02-10T16:07:01;102252.94;;;2.43;52.27
39309;BME280;26019;47.510;19.122;2023-02-10T16:17:05;102266.94;;;2.06;53.67
39309;BME280;26019;47.510;19.122;2023-02-10T16:27:10;102261.81;;;1.78;55.30
39309;BME280;26019;47.510;19.122;2023-02-10T16:37:21;102267.47;;;1.59;56.00
39309;BME280;26019;47.510;19.122;2023-02-10T16:47:25;102277.19;;;1.51;57.21
39309;BME280;26019;47.510;19.122;2023-02-10T16:57:28;102277.59;;;1.30;58.49
39309;BME280;26019;47.510;19.122;2023-02-10T17:07:31;102269.06;;;1.16;60.70
39309;BME280;26019;47.510;19.122;2023-02-10T17:17:35;102283.38;;;1.14;62.93
39309;BME280;26019;47.510;19.122;2023-02-10T17:27:40;102295.72;;;1.08;64.82
39309;BME280;26019;47.510;19.122;2023-02-10T17:37:44;102287.94;;;0.80;65.96
39309;BME280;26019;47.510;19.122;2023-02-10T17:47:47;102294.88;;;0.69;67.78
39309;BME280;26019;47.510;19.122;2023-02-10T17:57:57;102293.59;;;0.62;69.09
39309;BME280;26019;47.510;19.122;2023-02-10T18:08:01;102278.75;;;0.18;75.85
39309;BME280;26019;47.510;19.122;2023-02-10T18:18:07;102301.19;;;-0.14;79.25
39309;BME280;26019;47.510;19.122;2023-02-10T18:28:11;102297.69;;;-0.40;86.47
39309;BME280;26019;47.510;19.122;2023-02-10T18:38:16;102291.75;;;-0.40;85.48
39309;BME280;26019;47.510;19.122;2023-02-10T18:48:20;102283.13;;;-0.42;87.93
39309;BME280;26019;47.510;19.122;2023-02-10T18:58:22;102289.31;;;-0.51;88.34
39309;BME280;26019;47.510;19.122;2023-02-10T19:08:26;102289.09;;;-0.54;89.52
39309;BME280;26019;47.510;19.122;2023-02-10T19:18:29;102282.81;;;-0.83;98.98
39309;BME280;26019;47.510;19.122;2023-02-10T19:28:36;102285.81;;;-0.88;100.00
39309;BME280;26019;47.510;19.122;2023-02-10T19:38:41;102281.13;;;-1.30;100.00
39309;BME280;26019;47.510;19.122;2023-02-10T19:48:47;102296.09;;;-1.45;100.00
39309;BME280;26019;47.510;19.122;2023-02-10T19:58:54;102296.94;;;-1.56;100.00
39309;BME280;26019;47.510;19.122;2023-02-10T20:08:59;102299.63;;;-1.43;100.00
39309;BME280;26019;47.510;19.122;2023-02-10T20:19:07;102298.22;;;-1.61;100.00
39309;BME280;26019;47.510;19.122;2023-02-10T20:29:13;102293.22;;;-1.84;100.00
39309;BME280;26019;47.510;19.122;2023-02-10T20:39:20;102292.13;;;-1.98;100.00
39309;BME280;26019;47.510;19.122;2023-02-10T20:49:26;102301.13;;;-2.23;100.00
39309;BME280;26019;47.510;19.122;2023-02-10T20:59:31;102301.63;;;-2.17;100.00
39309;BME280;26019;47.510;19.122;2023-02-10T21:09:34;102295.53;;;-2.19;100.00
39309;BME280;26019;47.510;19.122;2023-02-10T21:19:38;102303.22;;;-2.07;100.00
39309;BME280;26019;47.510;19.122;2023-02-10T21:29:41;102298.13;;;-2.30;100.00
39309;BME280;26019;47.510;19.122;2023-02-10T21:39:44;102283.00;;;-2.40;100.00
39309;BME280;26019;47.510;19.122;2023-02-10T21:49:49;102291.78;;;-2.57;100.00
39309;BME280;26019;47.510;19.122;2023-02-10T21:59:53;102302.78;;;-2.57;100.00
39309;BME280;26019;47.510;19.122;2023-02-10T22:09:55;102292.22;;;-2.73;100.00
39309;BME280;26019;47.510;19.122;2023-02-10T22:19:57;102287.81;;;-2.86;100.00
39309;BME280;26019;47.510;19.122;2023-02-10T22:30:00;102286.66;;;-2.90;100.00
39309;BME280;26019;47.510;19.122;2023-02-10T22:40:03;102286.91;;;-2.87;100.00
39309;BME280;26019;47.510;19.122;2023-02-10T22:50:05;102269.38;;;-3.06;100.00
39309;BME280;26019;47.510;19.122;2023-02-10T23:00:09;102271.41;;;-3.12;100.00
39309;BME280;26019;47.510;19.122;2023-02-10T23:10:11;102265.22;;;-3.16;100.00
39309;BME280;26019;47.510;19.122;2023-02-10T23:20:13;102254.75;;;-3.31;100.00
39309;BME280;26019;47.510;19.122;2023-02-10T23:30:15;102252.81;;;-3.23;100.00
39309;BME280;26019;47.510;19.122;2023-02-10T23:40:17;102253.97;;;-3.30;100.00
39309;BME280;26019;47.510;19.122;2023-02-10T23:50:18;102245.28;;;-3.33;100.00
